Main page
METAR-TAF:

METAR-TAF

Airports :

Imphal International Airport

Imphal, India

latitude: 24-45-36N, longitude: 93-53-48E, elevation: 774 m

Current weather observation

The report was made 2 hours and 19 minutes ago, at 11:30 UTC
Wind 4 kt from the West
Temperature 24°C
Humidity 69%
Pressure 1016 hPa
Visibility: 5000 m
Scattered clouds at a height of 1800 ft
haze

METAR: VEIM 131130Z 28004KT 5000 HZ SCT018 24/18 Q1016 NOSIG

Time: 19:19 (13:49 UTC)

Forecast

The report was made 2 hours and 49 minutes ago, at 11:00 UTC
Forecast valid from 13 at 12 UTC to 13 at 21 UTC
Wind 5 kt from the South/Southeast
Visibility: 4000 m
Scattered clouds at a height of 1800 ft
Scattered clouds at a height of 10000 ft
mist
Becoming
from 13 at 16 UTC to 13 at 18 UTC
Wind kt from the North
Visibility: 3000 m
mist

TAF: VEIM 131100Z 1312/1321 16005KT 4000 BR SCT018 SCT100 BECMG 1316/1318 00000KT 3000 BR

Weather observations and forecasts of more than 4000 airports (METAR and TAF reports).

The available stations are represented by yellow and red dots on the map.

Hover mouse over dot to see the name of the station.

Then click to see weather observations and forecasts.

To change the map : click on the green buttons with a black cross to zoom in, on the green button with a dash to zoom out, or on the green arrows for adjacent maps.


METAR-TAF: